createdAt,value
2017-11-17T00:01:09.239Z,21.40
2017-11-17T00:03:36.889Z,24.97
2017-11-17T00:06:04.544Z,23.93
2017-11-17T00:08:32.140Z,23.90
2017-11-17T00:10:59.848Z,23.63
2017-11-17T00:13:27.503Z,24.13
2017-11-17T00:15:55.200Z,15.83
2017-11-17T00:18:22.859Z,16.60
2017-11-17T00:20:50.565Z,22.70
2017-11-17T00:23:18.225Z,20.83
2017-11-17T00:25:45.936Z,18.00
2017-11-17T00:28:13.591Z,15.50
2017-11-17T00:30:41.312Z,22.00
2017-11-17T00:33:08.962Z,16.20
2017-11-17T00:35:36.648Z,16.37
2017-11-17T00:38:04.319Z,16.90
2017-11-17T00:40:32.008Z,17.03
2017-11-17T00:42:59.667Z,13.37
2017-11-17T00:45:27.378Z,13.00
2017-11-17T00:47:55.039Z,11.07
2017-11-17T00:50:22.730Z,11.40
2017-11-17T00:52:50.432Z,10.30
2017-11-17T00:55:18.073Z,11.37
2017-11-17T00:57:45.774Z,8.33
2017-11-17T01:00:13.483Z,7.77
2017-11-17T01:02:41.193Z,6.47
2017-11-17T01:05:08.853Z,7.63
2017-11-17T01:07:36.483Z,7.30
2017-11-17T01:10:04.148Z,7.27
2017-11-17T01:12:31.837Z,6.63
2017-11-17T01:14:59.485Z,4.87
2017-11-17T01:17:27.168Z,4.50
2017-11-17T01:19:54.825Z,4.83
2017-11-17T01:22:22.515Z,3.47
2017-11-17T01:24:50.167Z,2.57
2017-11-17T01:27:17.792Z,3.13
2017-11-17T01:29:45.441Z,2.60
2017-11-17T01:32:13.203Z,2.40
2017-11-17T01:34:40.866Z,2.73
2017-11-17T01:37:08.548Z,2.70
2017-11-17T01:39:36.452Z,2.17
2017-11-17T01:42:04.180Z,2.30
2017-11-17T01:44:31.831Z,3.30
2017-11-17T01:46:59.431Z,2.43
2017-11-17T01:49:27.153Z,2.60
2017-11-17T01:51:54.802Z,2.50
2017-11-17T01:54:22.487Z,2.07
2017-11-17T01:56:50.144Z,2.10
2017-11-17T01:59:17.900Z,2.00
2017-11-17T02:01:45.570Z,2.27
2017-11-17T02:04:13.268Z,1.53
2017-11-17T02:06:41.026Z,1.60
2017-11-17T02:09:08.736Z,1.50
2017-11-17T02:11:36.409Z,1.07
2017-11-17T02:14:04.095Z,1.40
2017-11-17T02:16:31.683Z,1.30
2017-11-17T02:18:59.369Z,1.10
2017-11-17T02:21:27.043Z,1.53
2017-11-17T02:23:54.733Z,1.20
2017-11-17T02:26:22.392Z,1.60
2017-11-17T02:28:50.106Z,0.90
2017-11-17T02:31:17.812Z,1.13
2017-11-17T02:33:45.469Z,1.53
2017-11-17T02:36:13.152Z,1.40
2017-11-17T02:38:41.238Z,1.40
2017-11-17T02:41:08.980Z,1.57
2017-11-17T02:43:36.586Z,1.53
2017-11-17T02:46:04.317Z,1.63
2017-11-17T02:48:31.931Z,2.47
2017-11-17T02:50:59.666Z,2.67
2017-11-17T02:53:27.316Z,2.30
2017-11-17T02:55:55.013Z,2.20
2017-11-17T02:58:22.606Z,2.17
2017-11-17T03:00:50.328Z,2.23
2017-11-17T03:03:18.053Z,2.77
2017-11-17T03:05:45.724Z,1.57
2017-11-17T03:08:13.364Z,1.50
2017-11-17T03:10:41.055Z,1.37
2017-11-17T03:13:08.711Z,1.30
2017-11-17T03:15:36.346Z,1.30
2017-11-17T03:18:04.056Z,1.33
2017-11-17T03:20:31.784Z,1.70
2017-11-17T03:22:59.452Z,1.50
2017-11-17T03:25:27.168Z,1.50
2017-11-17T03:27:54.774Z,1.80
2017-11-17T03:30:22.489Z,2.40
2017-11-17T03:32:50.144Z,2.70
2017-11-17T03:35:17.801Z,1.63
2017-11-17T03:37:45.503Z,1.70
2017-11-17T03:40:13.520Z,2.00
2017-11-17T03:42:41.259Z,1.47
2017-11-17T03:45:08.934Z,1.23
2017-11-17T03:47:36.623Z,1.67
2017-11-17T03:50:04.329Z,1.90
2017-11-17T03:52:32.021Z,1.93
2017-11-17T03:54:59.672Z,2.07
2017-11-17T03:57:27.379Z,2.23
2017-11-17T03:59:55.053Z,1.60
2017-11-17T04:02:22.737Z,1.60
2017-11-17T04:04:50.402Z,1.50
2017-11-17T04:07:18.091Z,2.47
2017-11-17T04:09:45.747Z,2.27
2017-11-17T04:12:13.429Z,1.77
2017-11-17T04:14:41.146Z,1.50
2017-11-17T04:17:08.872Z,1.90
2017-11-17T04:19:36.608Z,1.30
2017-11-17T04:22:04.333Z,1.90
2017-11-17T04:24:32.040Z,1.60
2017-11-17T04:26:59.754Z,1.83
2017-11-17T04:29:27.469Z,2.50
2017-11-17T04:31:55.177Z,3.10
2017-11-17T04:34:22.891Z,4.07
2017-11-17T04:36:50.529Z,4.63
2017-11-17T04:39:18.257Z,6.53
2017-11-17T04:41:45.918Z,3.83
2017-11-17T04:44:13.633Z,4.87
2017-11-17T04:46:41.573Z,5.77
2017-11-17T04:49:09.333Z,4.93
2017-11-17T04:51:37.043Z,4.00
2017-11-17T04:54:05.121Z,3.00
2017-11-17T04:56:32.834Z,3.10
2017-11-17T04:59:00.506Z,2.27
2017-11-17T05:01:28.211Z,2.40
2017-11-17T05:03:55.914Z,2.50
2017-11-17T05:06:23.620Z,2.27
2017-11-17T05:08:51.353Z,2.37
2017-11-17T05:11:19.051Z,2.60
2017-11-17T05:13:46.762Z,2.83
2017-11-17T05:16:14.469Z,2.40
2017-11-17T05:18:42.191Z,2.47
2017-11-17T05:21:09.927Z,2.57
2017-11-17T05:23:37.584Z,2.13
2017-11-17T05:26:05.266Z,2.73
2017-11-17T05:28:32.929Z,2.37
2017-11-17T05:31:00.569Z,2.20
2017-11-17T05:33:28.157Z,1.73
2017-11-17T05:35:55.880Z,2.00
2017-11-17T05:38:23.608Z,1.67
2017-11-17T05:40:51.346Z,1.60
2017-11-17T05:43:19.383Z,1.87
2017-11-17T05:45:47.449Z,2.20
2017-11-17T05:48:15.156Z,1.97
2017-11-17T05:50:47.176Z,1.67
2017-11-17T05:53:16.345Z,1.70
2017-11-17T05:55:44.720Z,1.50
2017-11-17T05:58:13.863Z,1.30
2017-11-17T06:00:42.065Z,1.40
2017-11-17T06:03:09.800Z,1.40
2017-11-17T06:05:37.918Z,1.40
2017-11-17T06:08:05.659Z,1.90
2017-11-17T06:10:33.806Z,1.00
2017-11-17T06:13:01.651Z,1.60
2017-11-17T06:15:29.421Z,1.40
2017-11-17T06:17:57.154Z,1.27
2017-11-17T06:20:25.142Z,1.30
2017-11-17T06:22:53.072Z,1.10
2017-11-17T06:25:21.095Z,1.23
2017-11-17T06:27:49.677Z,1.10
2017-11-17T06:30:18.361Z,1.40
2017-11-17T06:32:46.369Z,0.93
2017-11-17T06:35:14.172Z,0.93
2017-11-17T06:37:41.815Z,1.33
2017-11-17T06:40:09.564Z,1.30
2017-11-17T06:42:37.664Z,1.70
2017-11-17T06:45:05.761Z,1.77
2017-11-17T06:47:33.671Z,1.27
2017-11-17T06:50:02.212Z,1.47
2017-11-17T06:52:30.349Z,1.10
2017-11-17T06:54:58.228Z,1.27
2017-11-17T06:57:27.006Z,1.33
2017-11-17T06:59:55.680Z,1.40
2017-11-17T07:02:23.941Z,1.23
2017-11-17T07:04:51.706Z,1.43
2017-11-17T07:07:19.598Z,1.50
2017-11-17T07:09:48.220Z,1.20
2017-11-17T07:12:15.983Z,1.17
2017-11-17T07:14:44.104Z,1.77
2017-11-17T07:17:12.591Z,2.40
2017-11-17T07:19:40.668Z,4.40
2017-11-17T07:22:08.465Z,3.50
2017-11-17T07:24:36.514Z,2.63
2017-11-17T07:27:04.590Z,1.50
2017-11-17T07:29:32.524Z,1.00
2017-11-17T07:32:00.278Z,4.90
2017-11-17T07:34:28.205Z,6.20
2017-11-17T07:36:56.459Z,4.40
2017-11-17T07:39:25.271Z,4.23
2017-11-17T07:41:53.033Z,3.53
2017-11-17T07:44:21.707Z,3.83
2017-11-17T07:46:49.690Z,3.03
2017-11-17T07:49:18.717Z,2.87
2017-11-17T07:51:48.798Z,2.80
2017-11-17T07:54:16.696Z,2.70
2017-11-17T07:56:44.550Z,2.83
2017-11-17T07:59:12.175Z,3.30
2017-11-17T08:01:39.809Z,2.40
2017-11-17T08:04:08.496Z,2.10
2017-11-17T08:06:37.318Z,1.70
2017-11-17T08:09:05.334Z,1.67
2017-11-17T08:11:33.175Z,2.30
2017-11-17T08:14:01.880Z,2.03
2017-11-17T08:16:30.332Z,2.23
2017-11-17T08:18:58.464Z,2.30
2017-11-17T08:21:26.179Z,1.93
2017-11-17T08:23:54.935Z,1.80
2017-11-17T08:26:24.769Z,1.90
2017-11-17T08:28:52.547Z,2.10
2017-11-17T08:31:21.094Z,2.33
2017-11-17T08:33:48.888Z,2.60
2017-11-17T08:36:17.034Z,2.80
2017-11-17T08:38:44.783Z,2.10
2017-11-17T08:41:12.690Z,2.70
2017-11-17T08:43:40.690Z,2.63
2017-11-17T08:46:08.425Z,2.60
2017-11-17T08:48:36.137Z,3.07
2017-11-17T08:51:04.053Z,3.03
2017-11-17T08:53:32.046Z,2.93
2017-11-17T08:55:59.884Z,4.33
2017-11-17T08:58:27.949Z,3.33
2017-11-17T09:00:56.682Z,4.60
2017-11-17T09:03:24.435Z,5.40
2017-11-17T09:05:56.173Z,4.50
2017-11-17T09:08:24.076Z,5.63
2017-11-17T09:10:52.172Z,6.83
2017-11-17T09:13:21.042Z,5.27
2017-11-17T09:15:49.079Z,6.03
2017-11-17T09:18:16.810Z,5.60
2017-11-17T09:20:44.606Z,5.43
2017-11-17T09:23:12.712Z,7.20
2017-11-17T09:25:40.498Z,6.30
2017-11-17T09:28:08.269Z,6.63
2017-11-17T09:30:36.232Z,5.93
2017-11-17T09:33:04.076Z,6.73
2017-11-17T09:35:31.855Z,6.87
2017-11-17T09:37:59.940Z,7.43
2017-11-17T09:40:27.762Z,6.73
2017-11-17T09:42:55.819Z,7.07
2017-11-17T09:45:24.431Z,6.07
2017-11-17T09:47:52.345Z,6.77
2017-11-17T09:50:20.609Z,6.17
2017-11-17T09:52:48.811Z,5.97
2017-11-17T09:55:21.303Z,6.57
2017-11-17T09:57:49.063Z,5.67
2017-11-17T10:00:17.014Z,6.00
2017-11-17T10:02:44.667Z,5.70
2017-11-17T10:05:12.734Z,6.77
2017-11-17T10:07:40.808Z,5.10
2017-11-17T10:10:09.123Z,5.00
2017-11-17T10:12:37.017Z,4.70
2017-11-17T10:15:05.003Z,4.77
2017-11-17T10:17:32.966Z,4.93
2017-11-17T10:20:01.094Z,4.20
2017-11-17T10:22:28.806Z,3.67
2017-11-17T10:24:56.820Z,3.80
2017-11-17T10:27:25.564Z,3.83
2017-11-17T10:29:53.532Z,3.30
2017-11-17T10:32:21.557Z,3.27
2017-11-17T10:34:49.637Z,3.30
2017-11-17T10:37:18.019Z,3.00
2017-11-17T10:39:46.971Z,3.97
2017-11-17T10:42:15.038Z,2.90
2017-11-17T10:44:43.236Z,3.17
2017-11-17T10:47:11.233Z,2.87
2017-11-17T10:49:38.932Z,2.70
2017-11-17T10:52:07.204Z,2.40
2017-11-17T10:54:35.304Z,2.33
2017-11-17T10:57:03.744Z,2.63
2017-11-17T10:59:33.606Z,2.27
2017-11-17T11:02:01.390Z,2.30
2017-11-17T11:04:29.416Z,2.50
2017-11-17T11:06:57.451Z,2.93
2017-11-17T11:09:25.228Z,2.80
2017-11-17T11:11:53.288Z,2.40
2017-11-17T11:14:21.452Z,2.40
2017-11-17T11:16:49.230Z,2.70
2017-11-17T11:19:17.243Z,2.13
2017-11-17T11:21:45.436Z,1.93
2017-11-17T11:24:13.275Z,2.20
2017-11-17T11:26:42.859Z,2.17
2017-11-17T11:29:11.782Z,2.30
2017-11-17T11:31:42.896Z,1.70
2017-11-17T11:34:10.660Z,2.17
2017-11-17T11:36:38.397Z,2.10
2017-11-17T11:39:06.762Z,1.60
2017-11-17T11:41:34.476Z,2.80
2017-11-17T11:44:02.199Z,2.20
2017-11-17T11:46:30.175Z,2.30
2017-11-17T11:48:58.425Z,1.70
2017-11-17T11:51:26.148Z,2.20
2017-11-17T11:53:54.024Z,1.87
2017-11-17T11:56:21.764Z,1.83
2017-11-17T11:58:49.803Z,2.10
2017-11-17T12:01:17.860Z,2.10
2017-11-17T12:03:45.858Z,1.93
2017-11-17T12:06:13.919Z,1.60
2017-11-17T12:08:41.600Z,2.00
2017-11-17T12:11:09.343Z,1.90
2017-11-17T12:13:37.750Z,1.87
2017-11-17T12:16:05.920Z,2.00
2017-11-17T12:18:33.599Z,2.00
2017-11-17T12:21:01.380Z,2.30
2017-11-17T12:23:29.130Z,2.23
2017-11-17T12:25:56.852Z,1.50
2017-11-17T12:28:24.540Z,2.27
2017-11-17T12:30:52.524Z,2.00
2017-11-17T12:33:20.495Z,1.87
2017-11-17T12:35:48.369Z,1.40
2017-11-17T12:38:16.081Z,1.67
2017-11-17T12:40:43.888Z,1.73
2017-11-17T12:43:12.539Z,2.00
2017-11-17T12:45:40.376Z,1.67
2017-11-17T12:48:08.065Z,2.00
2017-11-17T12:50:36.075Z,2.00
2017-11-17T12:53:04.124Z,1.50
2017-11-17T12:55:31.825Z,2.17
2017-11-17T12:58:00.258Z,1.73
2017-11-17T13:00:28.335Z,1.77
2017-11-17T13:02:56.039Z,2.00
2017-11-17T13:05:24.260Z,2.10
2017-11-17T13:07:52.055Z,1.50
2017-11-17T13:10:20.134Z,1.73
2017-11-17T13:12:48.066Z,1.97
2017-11-17T13:15:16.427Z,1.67
2017-11-17T13:17:44.600Z,1.50
2017-11-17T13:20:12.389Z,1.50
2017-11-17T13:22:40.202Z,1.70
2017-11-17T13:25:07.977Z,1.43
2017-11-17T13:27:36.974Z,1.80
2017-11-17T13:30:05.186Z,1.80
2017-11-17T13:32:32.956Z,1.70
2017-11-17T13:35:00.963Z,1.53
2017-11-17T13:37:28.950Z,1.40
2017-11-17T13:39:56.701Z,1.60
2017-11-17T13:42:24.472Z,1.40
2017-11-17T13:44:52.505Z,1.90
2017-11-17T13:47:20.329Z,1.60
2017-11-17T13:49:49.293Z,1.77
2017-11-17T13:52:18.693Z,1.70
2017-11-17T13:54:46.392Z,1.63
2017-11-17T13:57:14.484Z,1.97
2017-11-17T13:59:42.627Z,1.77
2017-11-17T14:02:10.580Z,1.60
2017-11-17T14:04:38.356Z,1.93
2017-11-17T14:07:06.435Z,1.87
2017-11-17T14:09:34.233Z,1.70
2017-11-17T14:12:02.023Z,1.73
2017-11-17T14:14:29.710Z,1.30
2017-11-17T14:16:57.883Z,1.37
2017-11-17T14:19:26.456Z,1.87
2017-11-17T14:21:54.508Z,1.43
2017-11-17T14:24:22.267Z,1.50
2017-11-17T14:26:49.917Z,1.90
2017-11-17T14:29:18.698Z,1.60
2017-11-17T14:31:46.504Z,1.80
2017-11-17T14:34:14.675Z,1.50
2017-11-17T14:36:42.471Z,1.60
2017-11-17T14:39:10.312Z,1.83
2017-11-17T14:41:39.105Z,1.50
2017-11-17T14:44:07.272Z,2.00
2017-11-17T14:46:34.960Z,1.80
2017-11-17T14:49:03.989Z,1.80
2017-11-17T14:51:31.702Z,2.13
2017-11-17T14:53:59.440Z,1.80
2017-11-17T14:56:27.949Z,1.90
2017-11-17T14:58:55.648Z,1.60
2017-11-17T15:01:23.485Z,1.83
2017-11-17T15:03:51.632Z,2.10
2017-11-17T15:06:20.422Z,2.27
2017-11-17T15:08:48.137Z,2.30
2017-11-17T15:11:16.212Z,1.90
2017-11-17T15:13:44.123Z,1.97
2017-11-17T15:16:12.369Z,1.70
2017-11-17T15:18:40.588Z,1.70
2017-11-17T15:21:08.574Z,2.10
2017-11-17T15:23:37.576Z,1.30
2017-11-17T15:26:05.727Z,2.03
2017-11-17T15:28:33.427Z,1.60
2017-11-17T15:31:01.208Z,1.90
2017-11-17T15:33:28.885Z,1.83
2017-11-17T15:35:56.657Z,1.83
2017-11-17T15:38:26.592Z,1.90
2017-11-17T15:40:54.641Z,2.30
2017-11-17T15:43:22.705Z,2.40
2017-11-17T15:45:51.380Z,2.37
2017-11-17T15:48:19.407Z,2.30
2017-11-17T15:50:47.301Z,2.33
2017-11-17T15:53:15.516Z,2.07
2017-11-17T15:55:43.914Z,2.30
2017-11-17T15:58:11.790Z,2.33
2017-11-17T16:00:39.548Z,2.47
2017-11-17T16:03:08.372Z,2.50
2017-11-17T16:05:36.396Z,2.43
2017-11-17T16:08:04.119Z,2.10
2017-11-17T16:10:31.867Z,2.07
2017-11-17T16:12:59.954Z,2.70
2017-11-17T16:15:27.674Z,2.83
2017-11-17T16:17:56.181Z,2.50
2017-11-17T16:20:24.004Z,3.40
2017-11-17T16:22:52.560Z,3.93
2017-11-17T16:25:20.263Z,3.40
2017-11-17T16:27:47.979Z,4.03
2017-11-17T16:30:16.013Z,3.97
2017-11-17T16:32:43.893Z,3.97
2017-11-17T16:35:11.731Z,3.77
2017-11-17T16:37:39.850Z,3.00
2017-11-17T16:40:08.832Z,2.93
2017-11-17T16:42:36.540Z,3.47
2017-11-17T16:45:04.269Z,3.53
2017-11-17T16:47:32.777Z,2.43
2017-11-17T16:50:01.065Z,2.70
2017-11-17T16:52:28.801Z,4.03
2017-11-17T16:54:56.933Z,3.10
2017-11-17T16:57:25.485Z,2.83
2017-11-17T16:59:53.272Z,2.60
2017-11-17T17:02:21.272Z,2.50
2017-11-17T17:04:49.448Z,2.90
2017-11-17T17:07:17.102Z,2.70
2017-11-17T17:09:44.932Z,2.20
2017-11-17T17:12:13.579Z,2.57
2017-11-17T17:14:41.292Z,2.70
2017-11-17T17:17:10.206Z,2.70
2017-11-17T17:19:38.824Z,2.30
2017-11-17T17:22:06.896Z,1.93
2017-11-17T17:24:34.691Z,2.57
2017-11-17T17:27:03.112Z,2.03
2017-11-17T17:29:31.209Z,2.47
2017-11-17T17:31:59.067Z,2.67
2017-11-17T17:34:27.087Z,2.43
2017-11-17T17:36:55.239Z,3.10
2017-11-17T17:39:23.252Z,2.87
2017-11-17T17:41:51.447Z,2.63
2017-11-17T17:44:19.533Z,2.63
2017-11-17T17:46:47.209Z,2.30
2017-11-17T17:49:16.103Z,2.57
2017-11-17T17:51:43.885Z,2.43
2017-11-17T17:54:12.869Z,2.50
2017-11-17T17:56:40.683Z,2.60
2017-11-17T17:59:08.400Z,2.60
2017-11-17T18:01:36.211Z,2.40
2017-11-17T18:04:03.967Z,2.17
2017-11-17T18:06:31.652Z,2.20
2017-11-17T18:08:59.425Z,2.50
2017-11-17T18:11:27.734Z,2.67
2017-11-17T18:13:55.509Z,2.50
2017-11-17T18:16:23.653Z,2.37
2017-11-17T18:18:51.724Z,2.20
2017-11-17T18:21:19.766Z,3.07
2017-11-17T18:23:48.306Z,3.10
2017-11-17T18:26:15.961Z,2.93
2017-11-17T18:28:43.789Z,2.10
2017-11-17T18:31:12.179Z,2.30
2017-11-17T18:33:40.100Z,2.47
2017-11-17T18:36:07.936Z,2.50
2017-11-17T18:38:35.809Z,2.87
2017-11-17T18:41:04.103Z,2.37
2017-11-17T18:43:31.915Z,2.20
2017-11-17T18:45:59.783Z,2.40
2017-11-17T18:48:27.954Z,3.20
2017-11-17T18:50:56.213Z,2.50
2017-11-17T18:53:24.309Z,2.50
2017-11-17T18:55:52.037Z,3.13
2017-11-17T18:58:19.904Z,2.37
2017-11-17T19:00:47.680Z,2.80
2017-11-17T19:03:15.595Z,2.47
2017-11-17T19:05:43.528Z,2.60
2017-11-17T19:08:11.810Z,2.77
2017-11-17T19:10:40.448Z,3.20
2017-11-17T19:13:08.304Z,4.37
2017-11-17T19:15:36.344Z,2.53
2017-11-17T19:18:04.285Z,2.63
2017-11-17T19:20:32.253Z,3.10
2017-11-17T19:23:01.003Z,2.60
2017-11-17T19:25:29.029Z,3.47
2017-11-17T19:27:57.881Z,2.30
2017-11-17T19:30:26.708Z,2.77
2017-11-17T19:32:55.260Z,3.07
2017-11-17T19:35:23.390Z,2.40
2017-11-17T19:37:51.748Z,2.70
2017-11-17T19:40:20.549Z,3.10
2017-11-17T19:42:49.638Z,3.10
2017-11-17T19:45:18.136Z,2.60
2017-11-17T19:47:46.155Z,3.00
2017-11-17T19:50:14.269Z,3.27
2017-11-17T19:52:43.802Z,2.57
2017-11-17T19:55:11.699Z,2.63
2017-11-17T19:57:41.637Z,2.87
2017-11-17T20:00:09.886Z,2.37
2017-11-17T20:02:38.692Z,2.60
2017-11-17T20:05:08.079Z,2.90
2017-11-17T20:07:38.828Z,2.70
2017-11-17T20:10:08.064Z,2.20
2017-11-17T20:12:37.699Z,3.20
2017-11-17T20:15:07.044Z,2.43
2017-11-17T20:17:37.286Z,3.00
2017-11-17T20:20:06.375Z,2.70
2017-11-17T20:22:35.427Z,2.80
2017-11-17T20:25:06.094Z,2.60
2017-11-17T20:27:34.962Z,3.57
2017-11-17T20:30:02.873Z,2.13
2017-11-17T20:32:32.283Z,2.53
2017-11-17T20:35:01.383Z,3.27
2017-11-17T20:37:29.252Z,2.53
2017-11-17T20:39:57.224Z,2.37
2017-11-17T20:42:25.633Z,2.37
2017-11-17T20:44:54.903Z,2.83
2017-11-17T20:47:23.968Z,2.47
2017-11-17T20:49:52.927Z,2.60
2017-11-17T20:52:21.914Z,2.77
2017-11-17T20:54:51.031Z,2.60
2017-11-17T20:57:21.085Z,2.67
2017-11-17T20:59:49.561Z,2.30
2017-11-17T21:02:17.740Z,2.97
2017-11-17T21:04:54.052Z,2.40
2017-11-17T21:07:23.270Z,3.10
2017-11-17T21:09:51.737Z,2.70
2017-11-17T21:12:20.957Z,2.50
2017-11-17T21:14:50.911Z,3.23
2017-11-17T21:17:20.117Z,2.70
2017-11-17T21:19:51.429Z,2.80
2017-11-17T21:22:22.036Z,2.90
2017-11-17T21:24:52.636Z,2.83
2017-11-17T21:27:20.597Z,2.40
2017-11-17T21:29:51.847Z,3.10
2017-11-17T21:32:20.210Z,2.77
2017-11-17T21:34:50.632Z,2.63
2017-11-17T21:37:18.542Z,2.27
2017-11-17T21:39:46.936Z,2.40
2017-11-17T21:42:15.237Z,2.37
2017-11-17T21:44:43.041Z,2.47
2017-11-17T21:47:10.848Z,2.40
2017-11-17T21:49:40.056Z,2.40
2017-11-17T21:52:08.893Z,3.00
2017-11-17T21:54:37.405Z,2.57
2017-11-17T21:57:06.141Z,2.77
2017-11-17T21:59:34.675Z,2.20
2017-11-17T22:02:02.562Z,2.27
2017-11-17T22:04:31.153Z,3.03
2017-11-17T22:06:58.993Z,2.57
2017-11-17T22:09:26.904Z,2.20
2017-11-17T22:11:54.675Z,2.47
2017-11-17T22:14:22.804Z,2.37
2017-11-17T22:16:51.473Z,2.40
2017-11-17T22:19:19.228Z,2.30
2017-11-17T22:21:46.990Z,2.10
2017-11-17T22:24:15.133Z,2.20
2017-11-17T22:26:42.976Z,2.20
2017-11-17T22:29:10.676Z,1.90
2017-11-17T22:31:38.905Z,3.13
2017-11-17T22:34:06.626Z,2.60
2017-11-17T22:36:34.735Z,2.47
2017-11-17T22:39:02.979Z,2.13
2017-11-17T22:41:30.660Z,2.20
2017-11-17T22:43:58.752Z,2.20
2017-11-17T22:46:26.595Z,2.50
2017-11-17T22:48:54.300Z,2.13
2017-11-17T22:51:22.120Z,2.30
2017-11-17T22:53:49.769Z,2.87
2017-11-17T22:56:17.739Z,2.40
2017-11-17T22:58:46.577Z,2.20
2017-11-17T23:01:14.292Z,3.20
2017-11-17T23:03:42.318Z,2.30
2017-11-17T23:06:10.056Z,2.20
2017-11-17T23:08:38.781Z,2.70
2017-11-17T23:11:06.481Z,2.57
2017-11-17T23:13:34.477Z,2.70
2017-11-17T23:16:02.414Z,2.40
2017-11-17T23:18:30.141Z,2.50
2017-11-17T23:20:59.100Z,2.10
2017-11-17T23:23:27.205Z,2.03
2017-11-17T23:25:54.948Z,2.27
2017-11-17T23:28:22.789Z,2.80
2017-11-17T23:30:50.881Z,2.10
2017-11-17T23:33:18.713Z,2.30
2017-11-17T23:35:46.476Z,2.93
2017-11-17T23:38:14.250Z,2.37
2017-11-17T23:40:41.997Z,2.20
2017-11-17T23:43:09.763Z,2.17
2017-11-17T23:45:37.470Z,2.10
2017-11-17T23:48:05.192Z,2.17
2017-11-17T23:50:33.235Z,2.10
2017-11-17T23:53:01.238Z,2.20
2017-11-17T23:55:29.516Z,2.43
2017-11-17T23:57:57.614Z,2.20
